首页
METAR-TAF:

METAR-TAF

机场 :

普兰特城, 佛罗里达州, 美国

纬度: 28-00-01N, 经度: 082-09-51W, 海拔: 47米

当前天气观测

该预报发布于23分钟前的15:55 UTC
风速12节,风向东转东北
温度 29°C
湿度 62%
气压 1018 hPa
能見度: 16.1公里
多云层高于3600英尺
多云层高于4700英尺

METAR: KPCM 231555Z AUTO 06012KT 10SM BKN036 BKN047 29/21 A3007 RMK AO2

时间: 12:18 (16:18 UTC)


TAF: 丢失

超过4000个机场的气象观测和天气预报(METAR&TAF报告)。

可查询的气象台以黄色和红色小点在地图上表示。

将鼠标移到小点上方,可查看气象台名称。

然后点击查看天气观测和预报。

如需切换地图:点击带黑十字的绿色按钮放大地图;点击带横线的绿色按钮缩小地图;或者点击绿色箭头查看邻近地区的地图。


METAR-TAF: